• Join FlightAware (Why Join?)
  • Login
  • US Flag 
02:51AM EDT


 

Airport Tracker/Info


-or-


 

Live Flight TrackerFlight Track Log ✈ ASH3770 ✈ 05-May-2013 ✈ KPIT - KORD

Flight Track Log - Related Links

Times and Time Zones

All times are in EDT time to prevent confusion due to time zone crossing. See the ASH3770 flight status page for this flight to view local times or setup timezone preferences in your user account.

Time Position Orientation Groundspeed Altitude Reporting Facility
EDT Latitude Longitude Course Direction KTS MPH feet Rate Location/Type
06:34PM 40.6422 -80.2903 279° West 313 360 10,500  Level Cleveland Center
06:35PM 40.6925 -80.3969 302° West 320 368 13,300 1,800 Climbing Cleveland Center
06:36PM 40.6854 -81.1884 286° West  Level FlightAware Approximate
06:36PM 40.6947 -80.5283 271° West 328 377 14,100  Level Cleveland Center
06:37PM 40.7146 -81.3275 286° West  Level FlightAware Approximate
06:37PM 40.7008 -80.6653 273° West 366 421 16,900  Level Cleveland Center
06:38PM 40.7341 -81.4682 303° West  Level FlightAware Approximate
06:38PM 40.7089 -80.7967 275° West 377 434 19,300  Level Cleveland Center
06:39PM 40.7631 -81.6049 279° West  Level FlightAware Approximate
06:39PM 40.7169 -80.9228 275° West 377 434 21,100  Level Cleveland Center
06:40PM 40.7228 -81.0844 273° West 397 457 22,800 1,800 Climbing Cleveland Center
06:41PM 40.7303 -81.2353 274° West 409 471 24,700 1,620 Climbing Cleveland Center
06:42PM 40.7378 -81.3858 274° West 409 471 26,100 1,260 Climbing Cleveland Center
06:43PM 40.7553 -81.5206 280° West 415 478 27,300 1,260 Climbing Cleveland Center
06:44PM 40.7833 -81.6717 284° West 425 489 28,700 1,260 Climbing Cleveland Center
06:45PM 40.8128 -81.8258 284° West 430 495 29,900 1,080 Climbing Cleveland Center
06:46PM 40.8403 -81.9828 283° West 435 501 30,900 960 Climbing Cleveland Center
06:47PM 40.8714 -82.1564 283° West 435 501 31,900 900 Climbing Cleveland Center
06:48PM 40.9003 -82.3164 283° West 440 506 32,800 900 Climbing Cleveland Center
06:49PM 40.9292 -82.4767 283° West 445 512 33,700 600 Climbing Cleveland Center
06:50PM 40.9575 -82.6425 283° West 453 521 34,000 120 Climbing Cleveland Center
06:51PM 40.9878 -82.8058 284° West 453 521 34,000  Level Cleveland Center
06:52PM 41.0136 -82.9717 282° West 453 521 34,000  Level Cleveland Center
06:53PM 41.0414 -83.1353 283° West 453 521 34,000  Level Cleveland Center
06:54PM 41.0731 -83.2989 284° West 453 521 34,000  Level Cleveland Center
06:55PM 41.0967 -83.4350 283° West 458 527 34,000  Level Cleveland Center
06:56PM 41.1214 -83.6153 280° West 458 527 34,000  Level Cleveland Center
06:57PM 41.1500 -83.7847 283° West 458 527 34,000  Level Cleveland Center
06:58PM 41.2050 -84.1067 283° West 474 545 34,000  Level Chicago Center
07:00PM 41.2300 -84.2618 279° West  Level FlightAware Approximate
07:00PM 41.2292 -84.4564 279° West 476 548 34,000  Level Chicago Center
07:01PM 41.2364 -84.6328 273° West 477 549 34,000  Level Chicago Center
07:02PM 41.2433 -84.8117 273° West 483 556 34,000 -420 Level Chicago Center
07:04PM 41.2497 -84.9889 273° West 481 554 33,200 -1,260 Descending Chicago Center
07:05PM 41.2569 -85.2119 273° West 494 568 31,400 -1,620 Descending Chicago Center
07:06PM 41.2636 -85.4022 273° West 507 583 29,900 -1,740 Descending Chicago Center
07:07PM 41.2697 -85.5917 273° West 509 586 27,900 -1,860 Descending Chicago Center
07:08PM 41.2753 -85.7719 272° West 485 558 26,100 -1,440 Descending Chicago Center
07:09PM 41.2806 -85.9481 272° West 477 549 25,000 -540 Descending Chicago Center
07:10PM 41.3047 -86.1239 280° West 480 552 25,000 -300 Level Chicago Center
07:11PM 41.3483 -86.2994 288° West 493 567 24,400 -1,620 Descending Chicago Center
07:12PM 41.4000 -86.5019 289° West 482 555 21,700 -2,400 Descending Chicago Center
07:13PM 41.4397 -86.6633 288° West 463 533 19,500 -2,160 Descending Chicago Center
07:14PM 41.4808 -86.8286 288° West 442 509 17,200 -2,220 Descending Chicago Center
07:15PM 41.5172 -86.9822 288° West 438 504 15,000 -2,040 Descending Chicago Center
07:16PM 41.5544 -87.1297 289° West 426 490 13,000 -1,620 Descending Chicago Center
07:17PM 41.5833 -87.2500 288° West 375 432 12,100 -540 Descending Chicago TRACON
07:18PM 41.6500 -87.3500 312° West 372 428 12,100 -120 Level Chicago TRACON
07:18PM 41.6564 -87.3675 296° West 372 428 12,000 -240 Descending Chicago Center
07:19PM 41.7331 -87.4933 309° West 369 425 11,800 -720 Descending Chicago Center
07:20PM 41.7906 -87.5889 309° West 336 387 10,600 -1,380 Descending Chicago Center
07:21PM 41.8167 -87.6500 300° West 310 357 9,600 -1,620 Descending Chicago TRACON
07:22PM 41.8167 -87.7500 270° West 293 337 8,100 -1,200 Descending Chicago TRACON
07:23PM 41.8167 -87.8667 270° West 232 267 7,100 -840 Descending Chicago TRACON
07:23PM 41.8100 -87.8778 231° Southwest 234 269 6,900 -1,320 Descending Chicago Center
07:24PM 41.7811 -87.9536 243° Southwest 198 228 5,200 -1,380 Descending Chicago Center
07:25PM 41.7756 -88.0186 263° West 197 227 4,100 -600 Descending Chicago Center
07:26PM 41.8081 -88.0739 308° West 207 238 4,000 -240 Descending Chicago Center
07:27PM 41.8411 -88.0328 43° Northeast 180 207 3,700 -600 Descending Chicago Center
07:28PM 41.8739 -87.9933 42° Northeast 165 190 2,800 -900 Descending Chicago Center
07:29PM 41.8833 -87.9833 38° Northeast 148 170 2,500 -900 Descending Chicago TRACON
07:30PM 41.9167 -87.9500 37° Northeast 126 145 1,700 -780 Descending Chicago TRACON
07:31PM 41.9500 -87.9167 37° Northeast 135 155 1,000 -720 Descending Chicago TRACON